Главная страница
METAR-TAF:

METAR-TAF

Аэропорты :

Яп

Острова Яп, Микронезия

широта: 09-29N, долгота: 138-05E, высота над уровнем моря: 28 м

Текущие метеонаблюдения

Эта сводка был подготовлена 34 минут назад, в 05:53 UTC
Ветер 4 Узел переменных направлений
Температура 30°C
Влажность 79%
Давление 1007 hPa
Видимость: 19.3 км
небольшая облачность на высоте 1600 фута
небольшая облачность на высоте 13000 фута
Отдельные облака на высоте 30000 фута

METAR: PTYA 130553Z VRB04KT 12SM FEW016 FEW130 SCT300 30/26 A2974 RMK SLP071 8/171 T03000260 10306 20252 57024

Время: 16:27 (06:27 UTC)

Прогноз

Эта сводка был подготовлена 1 час и 4 минут назад, в 05:23 UTC
Прогноз действительный с 13-го 06 UTC до 14-го 06 UTC
Ветер 6 Узел от восточно-северо-восточный
Видимость: 10 км
Отдельные облака на высоте 1600 фута
Отдельные облака на высоте 13000 фута

TAF: PTYA 130523Z 1306/1406 07006KT P6SM SCT016 SCT130

Метеонаблюдения и прогнозы для более 4000 аэропортов (сводки METAR и TAF).

Имеющиеся станции представлены на карте желтыми и красными точками.

Чтобы увидеть название станции, наведите на нее мышь.

Затем щелкните, чтобы увидеть метеонаблюдения и метеопрогнозы.

Управление картой: чтобы увеличить масштаб, щелкните зеленые кнопки с черным крестиком; чтобы уменьшить масштаб, щелкните зеленую кнопку с тире; для просмотра соседних карт щелкайте зеленые стрелки.


METAR-TAF: